sensor_id;sensor_type;location;lat;lon;timestamp;temperature;humidity
51811;DHT22;52468;40.116;18.296;2023-10-08T00:01:17;19.20;84.80
51811;DHT22;52468;40.116;18.296;2023-10-08T00:03:48;19.30;84.60
51811;DHT22;52468;40.116;18.296;2023-10-08T00:06:18;19.30;84.70
51811;DHT22;52468;40.116;18.296;2023-10-08T00:08:48;19.30;84.90
51811;DHT22;52468;40.116;18.296;2023-10-08T00:11:17;19.30;84.80
51811;DHT22;52468;40.116;18.296;2023-10-08T00:13:45;19.30;84.90
51811;DHT22;52468;40.116;18.296;2023-10-08T00:16:16;19.30;84.70
51811;DHT22;52468;40.116;18.296;2023-10-08T00:18:49;19.20;84.70
51811;DHT22;52468;40.116;18.296;2023-10-08T00:21:20;19.20;84.60
51811;DHT22;52468;40.116;18.296;2023-10-08T00:23:55;19.10;84.70
51811;DHT22;52468;40.116;18.296;2023-10-08T00:26:27;19.10;84.70
51811;DHT22;52468;40.116;18.296;2023-10-08T00:28:58;19.10;84.80
51811;DHT22;52468;40.116;18.296;2023-10-08T00:31:34;19.00;84.70
51811;DHT22;52468;40.116;18.296;2023-10-08T00:34:05;19.00;84.60
51811;DHT22;52468;40.116;18.296;2023-10-08T00:36:33;18.90;84.90
51811;DHT22;52468;40.116;18.296;2023-10-08T00:39:04;18.90;84.80
51811;DHT22;52468;40.116;18.296;2023-10-08T00:41:35;18.80;84.90
51811;DHT22;52468;40.116;18.296;2023-10-08T00:44:13;18.80;85.00
51811;DHT22;52468;40.116;18.296;2023-10-08T00:46:43;18.80;84.90
51811;DHT22;52468;40.116;18.296;2023-10-08T00:49:22;18.80;85.00
51811;DHT22;52468;40.116;18.296;2023-10-08T00:52:03;18.70;85.10
51811;DHT22;52468;40.116;18.296;2023-10-08T00:54:38;18.70;85.00
51811;DHT22;52468;40.116;18.296;2023-10-08T00:57:29;18.60;85.00
51811;DHT22;52468;40.116;18.296;2023-10-08T00:59:57;18.60;84.80
51811;DHT22;52468;40.116;18.296;2023-10-08T01:02:30;18.60;85.00
51811;DHT22;52468;40.116;18.296;2023-10-08T01:05:15;18.50;85.00
51811;DHT22;52468;40.116;18.296;2023-10-08T01:07:46;18.50;85.10
51811;DHT22;52468;40.116;18.296;2023-10-08T01:10:18;18.50;85.20
51811;DHT22;52468;40.116;18.296;2023-10-08T01:12:52;18.60;85.30
51811;DHT22;52468;40.116;18.296;2023-10-08T01:15:29;18.60;85.10
51811;DHT22;52468;40.116;18.296;2023-10-08T01:17:58;18.50;85.10
51811;DHT22;52468;40.116;18.296;2023-10-08T01:20:28;18.50;85.20
51811;DHT22;52468;40.116;18.296;2023-10-08T01:25:37;18.50;85.30
51811;DHT22;52468;40.116;18.296;2023-10-08T01:28:06;18.50;85.30
51811;DHT22;52468;40.116;18.296;2023-10-08T01:30:59;18.50;85.40
51811;DHT22;52468;40.116;18.296;2023-10-08T01:33:28;18.50;85.40
51811;DHT22;52468;40.116;18.296;2023-10-08T01:35:56;18.50;85.40
51811;DHT22;52468;40.116;18.296;2023-10-08T01:38:32;18.50;85.60
51811;DHT22;52468;40.116;18.296;2023-10-08T01:41:02;18.50;85.40
51811;DHT22;52468;40.116;18.296;2023-10-08T01:43:31;18.40;85.30
51811;DHT22;52468;40.116;18.296;2023-10-08T01:46:02;18.50;85.20
51811;DHT22;52468;40.116;18.296;2023-10-08T01:48:30;18.40;85.40
51811;DHT22;52468;40.116;18.296;2023-10-08T01:51:05;18.50;85.40
51811;DHT22;52468;40.116;18.296;2023-10-08T01:53:39;18.40;85.40
51811;DHT22;52468;40.116;18.296;2023-10-08T01:56:07;18.50;85.30
51811;DHT22;52468;40.116;18.296;2023-10-08T01:58:38;18.40;85.40
51811;DHT22;52468;40.116;18.296;2023-10-08T02:01:06;18.40;85.30
51811;DHT22;52468;40.116;18.296;2023-10-08T02:03:39;18.40;85.50
51811;DHT22;52468;40.116;18.296;2023-10-08T02:06:09;18.30;85.50
51811;DHT22;52468;40.116;18.296;2023-10-08T02:08:40;18.30;85.50
51811;DHT22;52468;40.116;18.296;2023-10-08T02:11:09;18.30;85.60
51811;DHT22;52468;40.116;18.296;2023-10-08T02:13:38;18.30;85.30
51811;DHT22;52468;40.116;18.296;2023-10-08T02:16:05;18.30;85.50
51811;DHT22;52468;40.116;18.296;2023-10-08T02:18:34;18.30;85.70
51811;DHT22;52468;40.116;18.296;2023-10-08T02:21:02;18.20;85.60
51811;DHT22;52468;40.116;18.296;2023-10-08T02:23:33;18.20;85.80
51811;DHT22;52468;40.116;18.296;2023-10-08T02:26:02;18.20;85.50
51811;DHT22;52468;40.116;18.296;2023-10-08T02:28:30;18.20;85.60
51811;DHT22;52468;40.116;18.296;2023-10-08T02:30:58;18.10;85.50
51811;DHT22;52468;40.116;18.296;2023-10-08T02:33:26;18.10;85.40
51811;DHT22;52468;40.116;18.296;2023-10-08T02:35:54;18.10;85.60
51811;DHT22;52468;40.116;18.296;2023-10-08T02:38:22;18.10;85.60
51811;DHT22;52468;40.116;18.296;2023-10-08T02:40:50;18.10;85.60
51811;DHT22;52468;40.116;18.296;2023-10-08T02:43:22;18.10;85.40
51811;DHT22;52468;40.116;18.296;2023-10-08T02:45:50;18.10;85.70
51811;DHT22;52468;40.116;18.296;2023-10-08T02:48:19;18.00;85.70
51811;DHT22;52468;40.116;18.296;2023-10-08T02:50:48;18.00;85.70
51811;DHT22;52468;40.116;18.296;2023-10-08T02:53:15;18.00;85.80
51811;DHT22;52468;40.116;18.296;2023-10-08T02:55:48;18.00;85.70
51811;DHT22;52468;40.116;18.296;2023-10-08T02:58:17;18.00;85.60
51811;DHT22;52468;40.116;18.296;2023-10-08T03:00:49;18.00;85.80
51811;DHT22;52468;40.116;18.296;2023-10-08T03:03:17;18.00;85.80
51811;DHT22;52468;40.116;18.296;2023-10-08T03:05:52;17.90;85.80
51811;DHT22;52468;40.116;18.296;2023-10-08T03:08:20;17.90;85.70
51811;DHT22;52468;40.116;18.296;2023-10-08T03:10:50;17.80;85.70
51811;DHT22;52468;40.116;18.296;2023-10-08T03:13:23;17.80;85.70
51811;DHT22;52468;40.116;18.296;2023-10-08T03:15:51;17.80;85.60
51811;DHT22;52468;40.116;18.296;2023-10-08T03:18:36;17.80;85.60
51811;DHT22;52468;40.116;18.296;2023-10-08T03:21:06;17.80;85.80
51811;DHT22;52468;40.116;18.296;2023-10-08T03:23:49;17.90;86.20
51811;DHT22;52468;40.116;18.296;2023-10-08T03:26:24;18.00;86.30
51811;DHT22;52468;40.116;18.296;2023-10-08T03:29:03;18.00;86.40
51811;DHT22;52468;40.116;18.296;2023-10-08T03:31:44;18.10;86.30
51811;DHT22;52468;40.116;18.296;2023-10-08T03:34:19;18.10;86.50
51811;DHT22;52468;40.116;18.296;2023-10-08T03:36:48;18.20;86.50
51811;DHT22;52468;40.116;18.296;2023-10-08T03:39:18;18.20;86.60
51811;DHT22;52468;40.116;18.296;2023-10-08T03:41:50;18.20;86.80
51811;DHT22;52468;40.116;18.296;2023-10-08T03:44:47;18.30;86.70
51811;DHT22;52468;40.116;18.296;2023-10-08T03:47:19;18.30;86.70
51811;DHT22;52468;40.116;18.296;2023-10-08T03:49:50;18.40;86.50
51811;DHT22;52468;40.116;18.296;2023-10-08T03:52:21;18.40;86.50
51811;DHT22;52468;40.116;18.296;2023-10-08T03:54:52;18.50;86.50
51811;DHT22;52468;40.116;18.296;2023-10-08T03:57:43;18.50;86.60
51811;DHT22;52468;40.116;18.296;2023-10-08T04:00:12;18.50;86.30
51811;DHT22;52468;40.116;18.296;2023-10-08T04:02:44;18.60;86.10
51811;DHT22;52468;40.116;18.296;2023-10-08T04:05:28;18.70;86.10
51811;DHT22;52468;40.116;18.296;2023-10-08T04:08:00;18.70;86.10
51811;DHT22;52468;40.116;18.296;2023-10-08T04:11:07;18.70;86.10
51811;DHT22;52468;40.116;18.296;2023-10-08T04:13:55;18.70;86.10
51811;DHT22;52468;40.116;18.296;2023-10-08T04:16:27;18.70;86.20
51811;DHT22;52468;40.116;18.296;2023-10-08T04:18:56;18.70;86.10
51811;DHT22;52468;40.116;18.296;2023-10-08T04:21:23;18.80;86.00
51811;DHT22;52468;40.116;18.296;2023-10-08T04:23:55;18.80;86.00
51811;DHT22;52468;40.116;18.296;2023-10-08T04:26:24;18.80;86.00
51811;DHT22;52468;40.116;18.296;2023-10-08T04:28:56;18.80;85.90
51811;DHT22;52468;40.116;18.296;2023-10-08T04:31:30;18.90;85.80
51811;DHT22;52468;40.116;18.296;2023-10-08T04:34:11;18.90;85.80
51811;DHT22;52468;40.116;18.296;2023-10-08T04:36:50;18.90;85.90
51811;DHT22;52468;40.116;18.296;2023-10-08T04:39:21;19.00;85.80
51811;DHT22;52468;40.116;18.296;2023-10-08T04:41:53;18.90;85.90
51811;DHT22;52468;40.116;18.296;2023-10-08T04:44:21;18.90;85.90
51811;DHT22;52468;40.116;18.296;2023-10-08T04:46:50;18.90;85.80
51811;DHT22;52468;40.116;18.296;2023-10-08T04:49:19;19.00;85.80
51811;DHT22;52468;40.116;18.296;2023-10-08T04:51:50;18.90;85.80
51811;DHT22;52468;40.116;18.296;2023-10-08T04:54:20;19.00;85.80
51811;DHT22;52468;40.116;18.296;2023-10-08T04:56:47;18.90;85.80
51811;DHT22;52468;40.116;18.296;2023-10-08T04:59:17;19.00;85.80
51811;DHT22;52468;40.116;18.296;2023-10-08T05:01:49;19.00;85.70
51811;DHT22;52468;40.116;18.296;2023-10-08T05:04:37;19.00;85.80
51811;DHT22;52468;40.116;18.296;2023-10-08T05:07:37;19.10;85.80
51811;DHT22;52468;40.116;18.296;2023-10-08T05:10:25;19.10;85.90
51811;DHT22;52468;40.116;18.296;2023-10-08T05:12:54;19.10;86.00
51811;DHT22;52468;40.116;18.296;2023-10-08T05:15:32;19.10;85.90
51811;DHT22;52468;40.116;18.296;2023-10-08T05:18:29;19.20;86.00
51811;DHT22;52468;40.116;18.296;2023-10-08T05:21:16;19.30;86.10
51811;DHT22;52468;40.116;18.296;2023-10-08T05:23:53;19.40;86.10
51811;DHT22;52468;40.116;18.296;2023-10-08T05:26:38;19.50;86.10
51811;DHT22;52468;40.116;18.296;2023-10-08T05:29:12;19.60;86.00
51811;DHT22;52468;40.116;18.296;2023-10-08T05:32:03;19.80;85.90
51811;DHT22;52468;40.116;18.296;2023-10-08T05:35:06;19.90;85.70
51811;DHT22;52468;40.116;18.296;2023-10-08T05:37:53;20.00;85.20
51811;DHT22;52468;40.116;18.296;2023-10-08T05:40:30;20.10;84.80
51811;DHT22;52468;40.116;18.296;2023-10-08T05:43:37;20.30;84.90
51811;DHT22;52468;40.116;18.296;2023-10-08T05:46:10;20.40;84.30
51811;DHT22;52468;40.116;18.296;2023-10-08T05:48:52;20.50;84.50
51811;DHT22;52468;40.116;18.296;2023-10-08T05:51:30;20.50;84.40
51811;DHT22;52468;40.116;18.296;2023-10-08T05:54:14;20.60;83.80
51811;DHT22;52468;40.116;18.296;2023-10-08T05:56:58;20.80;84.10
51811;DHT22;52468;40.116;18.296;2023-10-08T05:59:46;21.00;84.20
51811;DHT22;52468;40.116;18.296;2023-10-08T06:02:36;21.10;83.90
51811;DHT22;52468;40.116;18.296;2023-10-08T06:05:27;21.30;83.30
51811;DHT22;52468;40.116;18.296;2023-10-08T06:08:00;21.40;82.50
51811;DHT22;52468;40.116;18.296;2023-10-08T06:10:39;21.50;82.40
51811;DHT22;52468;40.116;18.296;2023-10-08T06:13:11;21.60;82.00
51811;DHT22;52468;40.116;18.296;2023-10-08T06:16:10;21.70;81.80
51811;DHT22;52468;40.116;18.296;2023-10-08T06:18:41;21.80;81.40
51811;DHT22;52468;40.116;18.296;2023-10-08T06:21:08;21.90;81.10
51811;DHT22;52468;40.116;18.296;2023-10-08T06:23:39;22.00;81.10
51811;DHT22;52468;40.116;18.296;2023-10-08T06:26:07;22.10;81.30
51811;DHT22;52468;40.116;18.296;2023-10-08T06:28:39;22.20;80.80
51811;DHT22;52468;40.116;18.296;2023-10-08T06:31:08;22.20;80.60
51811;DHT22;52468;40.116;18.296;2023-10-08T06:33:40;22.30;81.00
51811;DHT22;52468;40.116;18.296;2023-10-08T06:36:09;22.30;80.60
51811;DHT22;52468;40.116;18.296;2023-10-08T06:38:44;22.50;80.20
51811;DHT22;52468;40.116;18.296;2023-10-08T06:41:16;22.60;79.90
51811;DHT22;52468;40.116;18.296;2023-10-08T06:43:49;22.70;79.20
51811;DHT22;52468;40.116;18.296;2023-10-08T06:46:42;22.70;77.60
51811;DHT22;52468;40.116;18.296;2023-10-08T06:49:10;22.80;78.90
51811;DHT22;52468;40.116;18.296;2023-10-08T06:51:42;22.70;77.70
51811;DHT22;52468;40.116;18.296;2023-10-08T06:54:11;22.60;77.80
51811;DHT22;52468;40.116;18.296;2023-10-08T06:56:43;22.60;77.80
51811;DHT22;52468;40.116;18.296;2023-10-08T06:59:20;22.70;77.60
51811;DHT22;52468;40.116;18.296;2023-10-08T07:01:51;22.80;77.70
51811;DHT22;52468;40.116;18.296;2023-10-08T07:04:19;23.00;78.20
51811;DHT22;52468;40.116;18.296;2023-10-08T07:06:49;23.10;76.50
51811;DHT22;52468;40.116;18.296;2023-10-08T07:09:18;23.20;77.10
51811;DHT22;52468;40.116;18.296;2023-10-08T07:11:57;23.30;76.70
51811;DHT22;52468;40.116;18.296;2023-10-08T07:14:27;23.30;76.30
51811;DHT22;52468;40.116;18.296;2023-10-08T07:16:58;23.20;76.80
51811;DHT22;52468;40.116;18.296;2023-10-08T07:19:27;23.30;75.90
51811;DHT22;52468;40.116;18.296;2023-10-08T07:22:07;23.50;75.90
51811;DHT22;52468;40.116;18.296;2023-10-08T07:24:46;23.60;75.30
51811;DHT22;52468;40.116;18.296;2023-10-08T07:27:19;23.70;75.30
51811;DHT22;52468;40.116;18.296;2023-10-08T07:29:57;23.80;75.00
51811;DHT22;52468;40.116;18.296;2023-10-08T07:32:28;23.80;73.30
51811;DHT22;52468;40.116;18.296;2023-10-08T07:34:58;23.70;74.30
51811;DHT22;52468;40.116;18.296;2023-10-08T07:37:42;23.70;73.20
51811;DHT22;52468;40.116;18.296;2023-10-08T07:40:11;23.80;73.50
51811;DHT22;52468;40.116;18.296;2023-10-08T07:42:40;24.00;72.00
51811;DHT22;52468;40.116;18.296;2023-10-08T07:45:08;24.00;72.00
51811;DHT22;52468;40.116;18.296;2023-10-08T07:47:36;24.10;70.80
51811;DHT22;52468;40.116;18.296;2023-10-08T07:50:04;24.30;71.00
51811;DHT22;52468;40.116;18.296;2023-10-08T07:52:39;24.40;70.90
51811;DHT22;52468;40.116;18.296;2023-10-08T07:55:11;24.50;69.80
51811;DHT22;52468;40.116;18.296;2023-10-08T07:57:45;24.60;69.80
51811;DHT22;52468;40.116;18.296;2023-10-08T08:00:14;24.60;68.70
51811;DHT22;52468;40.116;18.296;2023-10-08T08:02:53;24.70;68.40
51811;DHT22;52468;40.116;18.296;2023-10-08T08:05:23;25.00;67.90
51811;DHT22;52468;40.116;18.296;2023-10-08T08:07:52;25.10;66.30
51811;DHT22;52468;40.116;18.296;2023-10-08T08:10:21;25.30;66.60
51811;DHT22;52468;40.116;18.296;2023-10-08T08:12:51;25.60;65.30
51811;DHT22;52468;40.116;18.296;2023-10-08T08:15:24;25.50;64.60
51811;DHT22;52468;40.116;18.296;2023-10-08T08:17:54;25.50;64.70
51811;DHT22;52468;40.116;18.296;2023-10-08T08:20:22;25.40;64.50
51811;DHT22;52468;40.116;18.296;2023-10-08T08:23:02;25.40;64.60
51811;DHT22;52468;40.116;18.296;2023-10-08T08:25:41;25.70;63.20
51811;DHT22;52468;40.116;18.296;2023-10-08T08:28:28;25.90;61.90
51811;DHT22;52468;40.116;18.296;2023-10-08T08:31:02;26.10;61.10
51811;DHT22;52468;40.116;18.296;2023-10-08T08:33:32;26.00;60.60
51811;DHT22;52468;40.116;18.296;2023-10-08T08:36:20;25.70;60.90
51811;DHT22;52468;40.116;18.296;2023-10-08T08:38:49;25.50;61.40
51811;DHT22;52468;40.116;18.296;2023-10-08T08:41:18;25.40;62.00
51811;DHT22;52468;40.116;18.296;2023-10-08T08:43:53;25.60;61.90
51811;DHT22;52468;40.116;18.296;2023-10-08T08:46:35;25.90;61.20
51811;DHT22;52468;40.116;18.296;2023-10-08T08:49:05;26.10;59.90
51811;DHT22;52468;40.116;18.296;2023-10-08T08:51:35;26.20;59.20
51811;DHT22;52468;40.116;18.296;2023-10-08T08:54:04;26.50;58.90
51811;DHT22;52468;40.116;18.296;2023-10-08T08:56:37;26.50;57.70
51811;DHT22;52468;40.116;18.296;2023-10-08T08:59:08;26.30;56.80
51811;DHT22;52468;40.116;18.296;2023-10-08T09:01:40;26.40;56.90
51811;DHT22;52468;40.116;18.296;2023-10-08T09:04:08;26.50;57.30
51811;DHT22;52468;40.116;18.296;2023-10-08T09:06:37;27.00;56.80
51811;DHT22;52468;40.116;18.296;2023-10-08T09:09:08;27.10;55.10
51811;DHT22;52468;40.116;18.296;2023-10-08T09:11:50;27.10;54.50
51811;DHT22;52468;40.116;18.296;2023-10-08T09:14:24;26.90;54.60
51811;DHT22;52468;40.116;18.296;2023-10-08T09:16:55;26.80;54.00
51811;DHT22;52468;40.116;18.296;2023-10-08T09:19:24;26.60;54.10
51811;DHT22;52468;40.116;18.296;2023-10-08T09:22:13;26.90;53.70
51811;DHT22;52468;40.116;18.296;2023-10-08T09:24:42;27.10;53.30
51811;DHT22;52468;40.116;18.296;2023-10-08T09:27:11;27.50;52.80
51811;DHT22;52468;40.116;18.296;2023-10-08T09:29:42;27.70;52.30
51811;DHT22;52468;40.116;18.296;2023-10-08T09:32:12;27.40;53.00
51811;DHT22;52468;40.116;18.296;2023-10-08T09:35:08;27.00;53.70
51811;DHT22;52468;40.116;18.296;2023-10-08T09:37:38;26.90;53.60
51811;DHT22;52468;40.116;18.296;2023-10-08T09:40:08;26.70;54.10
51811;DHT22;52468;40.116;18.296;2023-10-08T09:42:42;26.90;54.40
51811;DHT22;52468;40.116;18.296;2023-10-08T09:45:11;27.20;53.70
51811;DHT22;52468;40.116;18.296;2023-10-08T09:47:43;27.10;53.60
51811;DHT22;52468;40.116;18.296;2023-10-08T09:50:16;26.90;52.40
51811;DHT22;52468;40.116;18.296;2023-10-08T09:53:04;26.90;52.70
51811;DHT22;52468;40.116;18.296;2023-10-08T09:55:36;27.10;53.20
51811;DHT22;52468;40.116;18.296;2023-10-08T09:58:04;27.30;52.90
51811;DHT22;52468;40.116;18.296;2023-10-08T10:00:32;27.10;53.10
51811;DHT22;52468;40.116;18.296;2023-10-08T10:03:01;27.00;53.30
51811;DHT22;52468;40.116;18.296;2023-10-08T10:05:34;27.10;52.90
51811;DHT22;52468;40.116;18.296;2023-10-08T10:08:03;27.40;52.70
51811;DHT22;52468;40.116;18.296;2023-10-08T10:10:38;27.50;52.60
51811;DHT22;52468;40.116;18.296;2023-10-08T10:13:10;27.50;51.30
51811;DHT22;52468;40.116;18.296;2023-10-08T10:15:39;27.70;50.80
51811;DHT22;52468;40.116;18.296;2023-10-08T10:18:16;27.80;51.30
51811;DHT22;52468;40.116;18.296;2023-10-08T10:23:40;27.30;50.70
51811;DHT22;52468;40.116;18.296;2023-10-08T10:31:39;27.70;51.00
51811;DHT22;52468;40.116;18.296;2023-10-08T10:34:08;27.50;50.90
51811;DHT22;52468;40.116;18.296;2023-10-08T10:36:40;27.50;51.00
51811;DHT22;52468;40.116;18.296;2023-10-08T10:39:12;27.60;50.30
51811;DHT22;52468;40.116;18.296;2023-10-08T10:41:54;27.60;51.40
51811;DHT22;52468;40.116;18.296;2023-10-08T10:44:29;27.70;50.90
51811;DHT22;52468;40.116;18.296;2023-10-08T10:46:58;28.00;49.50
51811;DHT22;52468;40.116;18.296;2023-10-08T10:49:49;28.00;49.60
51811;DHT22;52468;40.116;18.296;2023-10-08T10:52:27;27.80;50.60
51811;DHT22;52468;40.116;18.296;2023-10-08T10:55:34;27.70;50.20
51811;DHT22;52468;40.116;18.296;2023-10-08T10:58:02;27.80;50.20
51811;DHT22;52468;40.116;18.296;2023-10-08T11:00:42;27.90;50.50
51811;DHT22;52468;40.116;18.296;2023-10-08T11:03:10;27.70;50.90
51811;DHT22;52468;40.116;18.296;2023-10-08T11:05:47;27.80;50.70
51811;DHT22;52468;40.116;18.296;2023-10-08T11:08:19;27.80;49.90
51811;DHT22;52468;40.116;18.296;2023-10-08T11:10:48;27.90;49.40
51811;DHT22;52468;40.116;18.296;2023-10-08T11:13:22;27.90;49.60
51811;DHT22;52468;40.116;18.296;2023-10-08T11:15:56;27.90;49.40
51811;DHT22;52468;40.116;18.296;2023-10-08T11:18:26;28.00;47.90
51811;DHT22;52468;40.116;18.296;2023-10-08T11:21:08;28.20;46.70
51811;DHT22;52468;40.116;18.296;2023-10-08T11:23:44;28.20;45.60
51811;DHT22;52468;40.116;18.296;2023-10-08T11:26:21;28.30;45.50
51811;DHT22;52468;40.116;18.296;2023-10-08T11:29:00;28.20;45.50
51811;DHT22;52468;40.116;18.296;2023-10-08T11:31:31;28.20;47.00
51811;DHT22;52468;40.116;18.296;2023-10-08T11:34:03;28.10;47.00
51811;DHT22;52468;40.116;18.296;2023-10-08T11:36:37;28.10;46.50
51811;DHT22;52468;40.116;18.296;2023-10-08T11:39:20;28.10;46.80
51811;DHT22;52468;40.116;18.296;2023-10-08T11:42:01;28.00;47.60
51811;DHT22;52468;40.116;18.296;2023-10-08T11:44:32;28.00;47.80
51811;DHT22;52468;40.116;18.296;2023-10-08T11:47:04;28.00;49.10
51811;DHT22;52468;40.116;18.296;2023-10-08T11:49:48;28.10;48.90
51811;DHT22;52468;40.116;18.296;2023-10-08T11:52:37;28.10;48.20
51811;DHT22;52468;40.116;18.296;2023-10-08T11:55:10;28.10;48.30
51811;DHT22;52468;40.116;18.296;2023-10-08T11:57:49;27.70;47.70
51811;DHT22;52468;40.116;18.296;2023-10-08T12:00:18;27.80;46.60
51811;DHT22;52468;40.116;18.296;2023-10-08T12:02:58;27.80;48.40
51811;DHT22;52468;40.116;18.296;2023-10-08T12:05:29;28.10;48.90
51811;DHT22;52468;40.116;18.296;2023-10-08T12:07:57;28.30;49.60
51811;DHT22;52468;40.116;18.296;2023-10-08T12:10:25;28.40;48.60
51811;DHT22;52468;40.116;18.296;2023-10-08T12:12:54;28.30;47.90
51811;DHT22;52468;40.116;18.296;2023-10-08T12:15:22;28.20;47.20
51811;DHT22;52468;40.116;18.296;2023-10-08T12:17:54;28.20;48.50
51811;DHT22;52468;40.116;18.296;2023-10-08T12:20:43;28.00;48.80
51811;DHT22;52468;40.116;18.296;2023-10-08T12:23:15;28.00;48.70
51811;DHT22;52468;40.116;18.296;2023-10-08T12:25:56;27.80;50.30
51811;DHT22;52468;40.116;18.296;2023-10-08T12:28:25;28.00;47.60
51811;DHT22;52468;40.116;18.296;2023-10-08T12:30:55;28.10;47.80
51811;DHT22;52468;40.116;18.296;2023-10-08T12:33:28;28.30;48.30
51811;DHT22;52468;40.116;18.296;2023-10-08T12:35:57;28.40;47.70
51811;DHT22;52468;40.116;18.296;2023-10-08T12:38:25;28.30;48.70
51811;DHT22;52468;40.116;18.296;2023-10-08T12:40:55;28.30;49.70
51811;DHT22;52468;40.116;18.296;2023-10-08T12:43:26;28.30;49.80
51811;DHT22;52468;40.116;18.296;2023-10-08T12:45:56;28.20;49.50
51811;DHT22;52468;40.116;18.296;2023-10-08T12:48:26;28.00;50.30
51811;DHT22;52468;40.116;18.296;2023-10-08T12:50:55;27.80;50.00
51811;DHT22;52468;40.116;18.296;2023-10-08T12:53:27;27.60;50.90
51811;DHT22;52468;40.116;18.296;2023-10-08T12:56:01;27.90;50.80
51811;DHT22;52468;40.116;18.296;2023-10-08T12:58:35;27.80;51.30
51811;DHT22;52468;40.116;18.296;2023-10-08T13:01:09;27.90;50.10
51811;DHT22;52468;40.116;18.296;2023-10-08T13:03:37;27.80;49.70
51811;DHT22;52468;40.116;18.296;2023-10-08T13:06:17;27.70;50.00
51811;DHT22;52468;40.116;18.296;2023-10-08T13:08:59;27.80;48.70
51811;DHT22;52468;40.116;18.296;2023-10-08T13:11:27;27.50;49.50
51811;DHT22;52468;40.116;18.296;2023-10-08T13:14:01;27.30;51.00
51811;DHT22;52468;40.116;18.296;2023-10-08T13:16:29;27.40;51.00
51811;DHT22;52468;40.116;18.296;2023-10-08T13:18:59;27.50;50.40
51811;DHT22;52468;40.116;18.296;2023-10-08T13:21:27;27.60;50.00
51811;DHT22;52468;40.116;18.296;2023-10-08T13:23:56;27.60;49.70
51811;DHT22;52468;40.116;18.296;2023-10-08T13:26:28;27.40;50.10
51811;DHT22;52468;40.116;18.296;2023-10-08T13:28:59;27.30;50.70
51811;DHT22;52468;40.116;18.296;2023-10-08T13:31:27;27.20;51.10
51811;DHT22;52468;40.116;18.296;2023-10-08T13:33:57;27.20;51.70
51811;DHT22;52468;40.116;18.296;2023-10-08T13:36:25;27.20;51.00
51811;DHT22;52468;40.116;18.296;2023-10-08T13:38:52;27.30;50.10
51811;DHT22;52468;40.116;18.296;2023-10-08T13:41:22;27.30;49.80
51811;DHT22;52468;40.116;18.296;2023-10-08T13:43:51;27.30;49.20
51811;DHT22;52468;40.116;18.296;2023-10-08T13:46:20;27.20;48.80
51811;DHT22;52468;40.116;18.296;2023-10-08T13:48:50;27.10;50.80
51811;DHT22;52468;40.116;18.296;2023-10-08T13:51:20;27.00;51.40
51811;DHT22;52468;40.116;18.296;2023-10-08T13:53:56;27.00;51.70
51811;DHT22;52468;40.116;18.296;2023-10-08T13:56:28;27.10;52.90
51811;DHT22;52468;40.116;18.296;2023-10-08T13:59:00;27.10;53.20
51811;DHT22;52468;40.116;18.296;2023-10-08T14:01:46;27.20;53.20
51811;DHT22;52468;40.116;18.296;2023-10-08T14:04:14;27.10;52.90
51811;DHT22;52468;40.116;18.296;2023-10-08T14:06:47;27.20;52.30
51811;DHT22;52468;40.116;18.296;2023-10-08T14:09:20;27.20;51.90
51811;DHT22;52468;40.116;18.296;2023-10-08T14:11:49;27.20;52.40
51811;DHT22;52468;40.116;18.296;2023-10-08T14:14:20;27.30;52.20
51811;DHT22;52468;40.116;18.296;2023-10-08T14:16:52;27.50;50.70
51811;DHT22;52468;40.116;18.296;2023-10-08T14:19:21;27.80;49.40
51811;DHT22;52468;40.116;18.296;2023-10-08T14:21:56;28.00;49.00
51811;DHT22;52468;40.116;18.296;2023-10-08T14:27:08;29.50;46.40
51811;DHT22;52468;40.116;18.296;2023-10-08T14:29:39;29.90;45.50
51811;DHT22;52468;40.116;18.296;2023-10-08T14:32:08;30.00;45.00
51811;DHT22;52468;40.116;18.296;2023-10-08T14:34:36;30.80;43.60
51811;DHT22;52468;40.116;18.296;2023-10-08T14:37:14;30.80;43.90
51811;DHT22;52468;40.116;18.296;2023-10-08T14:40:01;30.60;45.20
51811;DHT22;52468;40.116;18.296;2023-10-08T14:42:48;30.50;46.00
51811;DHT22;52468;40.116;18.296;2023-10-08T14:45:32;30.50;46.20
51811;DHT22;52468;40.116;18.296;2023-10-08T14:48:03;30.70;45.90
51811;DHT22;52468;40.116;18.296;2023-10-08T14:50:39;30.90;45.00
51811;DHT22;52468;40.116;18.296;2023-10-08T14:53:08;30.50;44.60
51811;DHT22;52468;40.116;18.296;2023-10-08T14:55:36;29.50;46.40
51811;DHT22;52468;40.116;18.296;2023-10-08T14:58:06;29.00;47.30
51811;DHT22;52468;40.116;18.296;2023-10-08T15:00:38;28.90;47.70
51811;DHT22;52468;40.116;18.296;2023-10-08T15:03:10;28.30;48.30
51811;DHT22;52468;40.116;18.296;2023-10-08T15:05:41;27.30;50.60
51811;DHT22;52468;40.116;18.296;2023-10-08T15:08:11;26.70;52.90
51811;DHT22;52468;40.116;18.296;2023-10-08T15:10:45;26.10;54.60
51811;DHT22;52468;40.116;18.296;2023-10-08T15:13:18;25.80;56.00
51811;DHT22;52468;40.116;18.296;2023-10-08T15:15:51;25.70;56.80
51811;DHT22;52468;40.116;18.296;2023-10-08T15:18:18;25.60;56.20
51811;DHT22;52468;40.116;18.296;2023-10-08T15:20:47;25.50;56.20
51811;DHT22;52468;40.116;18.296;2023-10-08T15:23:15;25.50;56.50
51811;DHT22;52468;40.116;18.296;2023-10-08T15:25:44;25.40;57.00
51811;DHT22;52468;40.116;18.296;2023-10-08T15:28:12;25.30;57.80
51811;DHT22;52468;40.116;18.296;2023-10-08T15:30:40;25.20;58.40
51811;DHT22;52468;40.116;18.296;2023-10-08T15:33:09;25.00;58.50
51811;DHT22;52468;40.116;18.296;2023-10-08T15:35:38;25.10;58.50
51811;DHT22;52468;40.116;18.296;2023-10-08T15:38:10;25.00;59.10
51811;DHT22;52468;40.116;18.296;2023-10-08T15:40:39;25.00;59.70
51811;DHT22;52468;40.116;18.296;2023-10-08T15:43:10;24.90;61.60
51811;DHT22;52468;40.116;18.296;2023-10-08T15:45:38;24.80;62.00
51811;DHT22;52468;40.116;18.296;2023-10-08T15:48:07;24.60;62.90
51811;DHT22;52468;40.116;18.296;2023-10-08T15:50:35;24.60;63.70
51811;DHT22;52468;40.116;18.296;2023-10-08T15:53:03;24.40;64.80
51811;DHT22;52468;40.116;18.296;2023-10-08T15:55:31;24.40;65.10
51811;DHT22;52468;40.116;18.296;2023-10-08T15:57:59;24.40;64.80
51811;DHT22;52468;40.116;18.296;2023-10-08T16:00:27;24.20;65.20
51811;DHT22;52468;40.116;18.296;2023-10-08T16:02:55;24.20;66.00
51811;DHT22;52468;40.116;18.296;2023-10-08T16:05:23;24.10;66.40
51811;DHT22;52468;40.116;18.296;2023-10-08T16:07:51;24.10;66.80